Rotterdam, Netherlands

7:12 PM CEST on March 31, 2015 (GMT +0200)
Rotterdam | | Change Station
CLOSE
Current Station
Airport
Location: Rotterdam,
Elevation: -16 ft
Nearby Weather Stations
Active Advisory: Wind nederlands:Wind nederlands:

Elev -16 ft 51.95 °N, 4.44 °E | Updated 17 minutes ago

Mostly Cloudy
Mostly Cloudy
46 °F
Feels Like 38 °F
N
25
Wind Variable Wind from WNW

Today
High -- | Low -- °F
--% Chance of Precip.
Yesterday
High -- | Low -- °F
Precip. -- in
7:20 AM 8:13 PM
Waxing Gibbous, 88% visible
Pressure 29.74 in
Visibility 6.2 miles
Clouds Mostly Cloudy 1900 ft
Mostly Cloudy 3200 ft
Mostly Cloudy 3600 ft
Windchill 38 °F
Dew Point 37 °F
Humidity 71%
Rainfall 0.00 in
Snow Depth Not available.
UV 0 out of 12
Pollen Not available.
Air Quality Not available.
Flu Activity Not available.
METAR EHRD 311655Z AUTO 30022KT 270V340 9999 BKN019CB BKN032 BKN036 08/03 Q1007 TEMPO 28033G50KT 4000 SHRAGS SCT015CB

More Conditions Fewer Conditions

Pressure 29.74 in
Visibility 6.2 miles
Clouds Mostly Cloudy 1900 ft
Mostly Cloudy 3200 ft
Mostly Cloudy 3600 ft
Windchill 38 °F
Dew Point 37 °F
Humidity 71%
Rainfall 0.00 in
Snow Depth Not available.
UV 0 out of 12
Pollen Not available.
Air Quality Not available.
Flu Activity Not available.
METAR EHRD 311655Z AUTO 30022KT 270V340 9999 BKN019CB BKN032 BKN036 08/03 Q1007 TEMPO 28033G50KT 4000 SHRAGS SCT015CB

More Conditions Fewer Conditions

10-Day Weather Forecast

Almanac

Astronomy

Mar. 31, 2015 Rise Set
Actual Time
Civil Twilight
Nautical Twilight
Astronomical Twilight
Moon
Length of Visible Light
Length of Day
Tomorrow will be .
, % of the Moon is Illuminated

Today's Extremes

Country Highs Country Lows

Community

WunderPhotos

Upload Photos

1,809,787 photos uploaded!

WunderBlogs® & News

Nearby

Air Quality

  Air Quality AQ Index Pollutant
Not available.

Snow Depth

Station Depth Elevation

Earthquake Activity

City Distance Mag. Time & Date
Minimum magnitude displayed is 2.5.

Coastal Water Temperatures

Place Temperature

Stations

Nearby Weather Stations

Station Location Temp. Windchill Dew Point Humidity Wind Precip. Elev Updated Type